PWSweather.com
Personal Weather Stations
Station Observations
CRNINF
Briga AltaIT

Briga AltaIT

Lat: 44.1474858, Lon: 7.7359028

Elevation: 4542.8

Station Type: PCE-FWS20

Latest ConditionsUpdated 7:30:11 PM GMT+01:01 Sunday, Jan 26, 2020
Currently Today's Max Today's Min Today's Average
Temperature 32.5°F0.3°C 46.4°F8.0°C 26.6°F-3.0°C 35.2°F1.8°C
Dew Point 27.7°F-2.4°C 32.4°F0.2°C 21.5°F-5.8°C 27.2°F-2.7°C
Winds 0.4 mph NNW0.6 kmh NNW 2.9 mph -4.7 kmh - - 0.8 mph 1.3 kmh
Wind Gusts 2.2 mph3.5 kmh 7.6 mph12.2 kmh - -
Humidity 82% 83% 55% 73%
Pressure 29.59 in1002.0 mb 29.63 in1003.4 mb 29.58 in1001.7 mb -
Precipitation - 0.01 in0.3 mm - -
Hour Temp Dew Point Humidity Winds Wind Gusts Pressure Precip Precip Rate Daily Precip Total
07:30 PM 32.5°F0.3°C 27.7°F-2.4°C 82% 0.4 mph NNW0.6 kmh NNW 2.2 mph3.5 kmh 29.59 in1002.0 mb 0.00 in0.0 mm 0.00 in0.0 mm 0.01 in0.3 mm
07:15 PM 32.2°F0.1°C 27.3°F-2.6°C 82% 0.4 mph N0.6 kmh N 2.2 mph3.5 kmh 29.59 in1002.0 mb 0.00 in0.0 mm 0.00 in0.0 mm 0.01 in0.3 mm
07:00 PM 32.0°F0.0°C 27.4°F-2.6°C 83% 0.5 mph NNW0.8 kmh NNW 2.2 mph3.5 kmh 29.59 in1002.0 mb 0.00 in0.0 mm 0.00 in0.0 mm 0.01 in0.3 mm
06:45 PM 32.0°F0.0°C 27.4°F-2.6°C 83% 0.1 mph NE0.2 kmh NE 2.2 mph3.5 kmh 29.58 in1001.7 mb 0.00 in0.0 mm 0.00 in0.0 mm 0.01 in0.3 mm
06:30 PM 32.0°F0.0°C 27.1°F-2.7°C 82% 0.7 mph N1.1 kmh N 3.1 mph5.0 kmh 29.58 in1001.7 mb 0.00 in0.0 mm 0.00 in0.0 mm 0.01 in0.3 mm
06:15 PM 32.7°F0.4°C 27.9°F-2.3°C 82% 0.5 mph NNW0.8 kmh NNW 2.2 mph3.5 kmh 29.59 in1002.0 mb 0.00 in0.0 mm 0.00 in0.0 mm 0.01 in0.3 mm
06:00 PM 32.9°F0.5°C 28.0°F-2.2°C 82% 0.3 mph NW0.5 kmh NW 2.2 mph3.5 kmh 29.59 in1002.0 mb 0.00 in0.0 mm 0.00 in0.0 mm 0.01 in0.3 mm
05:45 PM 33.1°F0.6°C 27.9°F-2.3°C 81% 0.1 mph NNW0.2 kmh NNW 1.6 mph2.6 kmh 29.59 in1002.0 mb 0.01 in0.3 mm 0.00 in0.0 mm 0.01 in0.3 mm
05:30 PM 32.9°F0.5°C 27.1°F-2.7°C 79% 0.1 mph NW0.2 kmh NW 1.6 mph2.6 kmh 29.59 in1002.0 mb 0.01 in0.3 mm 0.00 in0.0 mm 0.01 in0.3 mm
05:15 PM 33.3°F0.7°C 26.9°F-2.8°C 77% Calm Calm -- 29.59 in1002.0 mb 0.01 in0.3 mm 0.00 in0.0 mm 0.01 in0.3 mm
05:00 PM 34.0°F1.1°C 26.9°F-2.8°C 75% Calm Calm -- 29.59 in1002.0 mb 0.01 in0.3 mm 0.01 in0.3 mm 0.01 in0.3 mm
04:45 PM 34.9°F1.6°C 27.8°F-2.3°C 75% Calm Calm -- 29.59 in1002.0 mb 0.00 in0.0 mm 0.00 in0.0 mm 0.00 in0.0 mm
04:30 PM 36.0°F2.2°C 29.8°F-1.2°C 78% Calm Calm -- 29.59 in1002.0 mb 0.00 in0.0 mm 0.00 in0.0 mm 0.00 in0.0 mm
04:15 PM 36.9°F2.7°C 30.7°F-0.7°C 78% Calm Calm 0.7 mph1.1 kmh 29.59 in1002.0 mb 0.00 in0.0 mm 0.00 in0.0 mm 0.00 in0.0 mm
04:00 PM 37.8°F3.2°C 30.9°F-0.6°C 76% Calm Calm 0.7 mph1.1 kmh 29.59 in1002.0 mb 0.00 in0.0 mm 0.00 in0.0 mm 0.00 in0.0 mm
03:45 PM 38.1°F3.4°C 30.9°F-0.6°C 75% 0.4 mph SE0.6 kmh SE 2.2 mph3.5 kmh 29.59 in1002.0 mb 0.00 in0.0 mm 0.00 in0.0 mm 0.00 in0.0 mm
03:30 PM 39.0°F3.9°C 30.8°F-0.7°C 72% 0.2 mph E0.3 kmh E 3.1 mph5.0 kmh 29.59 in1002.0 mb 0.00 in0.0 mm 0.00 in0.0 mm 0.00 in0.0 mm
03:15 PM 39.7°F4.3°C 30.4°F-0.9°C 69% 0.1 mph SE0.2 kmh SE 1.6 mph2.6 kmh 29.59 in1002.0 mb 0.00 in0.0 mm 0.00 in0.0 mm 0.00 in0.0 mm
03:00 PM 39.9°F4.4°C 30.2°F-1.0°C 68% 0.3 mph E0.5 kmh E 2.2 mph3.5 kmh 29.59 in1002.0 mb 0.00 in0.0 mm 0.00 in0.0 mm 0.00 in0.0 mm
02:45 PM 40.8°F4.9°C 30.7°F-0.7°C 67% 0.8 mph E1.3 kmh E 3.1 mph5.0 kmh 29.59 in1002.0 mb 0.00 in0.0 mm 0.00 in0.0 mm 0.00 in0.0 mm
02:30 PM 41.2°F5.1°C 30.3°F-0.9°C 65% 1.6 mph ESE2.6 kmh ESE 3.8 mph6.1 kmh 29.59 in1002.0 mb 0.00 in0.0 mm 0.00 in0.0 mm 0.00 in0.0 mm
02:15 PM 42.4°F5.8°C 30.7°F-0.7°C 63% 1.8 mph ESE2.9 kmh ESE 5.4 mph8.7 kmh 29.59 in1002.0 mb 0.00 in0.0 mm 0.00 in0.0 mm 0.00 in0.0 mm
02:00 PM 43.0°F6.1°C 30.5°F-0.8°C 61% 2.4 mph SE3.9 kmh SE 7.6 mph12.2 kmh 29.60 in1002.4 mb 0.00 in0.0 mm 0.00 in0.0 mm 0.00 in0.0 mm
01:45 PM 45.3°F7.4°C 31.4°F-0.3°C 58% 2.6 mph SE4.2 kmh SE 6.9 mph11.1 kmh 29.60 in1002.4 mb 0.00 in0.0 mm 0.00 in0.0 mm 0.00 in0.0 mm
01:30 PM 46.4°F8.0°C 32.4°F0.2°C 58% 2.4 mph SE3.9 kmh SE 5.4 mph8.7 kmh 29.60 in1002.4 mb 0.00 in0.0 mm 0.00 in0.0 mm 0.00 in0.0 mm
01:15 PM 45.9°F7.7°C 32.4°F0.2°C 59% 2.9 mph SE4.7 kmh SE 6.0 mph9.7 kmh 29.61 in1002.7 mb 0.00 in0.0 mm 0.00 in0.0 mm 0.00 in0.0 mm
01:00 PM 44.1°F6.7°C 30.7°F-0.7°C 59% 2.7 mph SE4.3 kmh SE 6.0 mph9.7 kmh 29.61 in1002.7 mb 0.00 in0.0 mm 0.00 in0.0 mm 0.00 in0.0 mm
12:45 PM 46.0°F7.8°C 32.1°F0.1°C 58% 2.5 mph SE4.0 kmh SE 6.0 mph9.7 kmh 29.62 in1003.0 mb 0.00 in0.0 mm 0.00 in0.0 mm 0.00 in0.0 mm
12:30 PM 43.9°F6.6°C 31.3°F-0.4°C 61% 2.4 mph SSE3.9 kmh SSE 6.9 mph11.1 kmh 29.62 in1003.0 mb 0.00 in0.0 mm 0.00 in0.0 mm 0.00 in0.0 mm
12:15 PM 43.0°F6.1°C 29.6°F-1.3°C 59% 2.4 mph SE3.9 kmh SE 4.5 mph7.2 kmh 29.62 in1003.0 mb 0.00 in0.0 mm 0.00 in0.0 mm 0.00 in0.0 mm
12:00 PM 46.4°F8.0°C 31.6°F-0.2°C 56% 2.1 mph SE3.4 kmh SE 6.0 mph9.7 kmh 29.62 in1003.0 mb 0.00 in0.0 mm 0.00 in0.0 mm 0.00 in0.0 mm
11:45 AM 41.9°F5.5°C 30.2°F-1.0°C 63% 1.6 mph SE2.6 kmh SE 4.5 mph7.2 kmh 29.63 in1003.4 mb 0.00 in0.0 mm 0.00 in0.0 mm 0.00 in0.0 mm
11:30 AM 42.6°F5.9°C 29.7°F-1.3°C 60% 1.3 mph ESE2.1 kmh ESE 4.5 mph7.2 kmh 29.63 in1003.4 mb 0.00 in0.0 mm 0.00 in0.0 mm 0.00 in0.0 mm
11:15 AM 43.5°F6.4°C 28.9°F-1.7°C 56% 1.9 mph ESE3.1 kmh ESE 6.0 mph9.7 kmh 29.63 in1003.4 mb 0.00 in0.0 mm 0.00 in0.0 mm 0.00 in0.0 mm
11:00 AM 44.6°F7.0°C 29.4°F-1.4°C 55% 0.9 mph SE1.4 kmh SE 3.8 mph6.1 kmh 29.62 in1003.0 mb 0.00 in0.0 mm 0.00 in0.0 mm 0.00 in0.0 mm
10:45 AM 44.2°F6.8°C 31.2°F-0.4°C 60% 0.1 mph SW0.2 kmh SW 2.2 mph3.5 kmh 29.62 in1003.0 mb 0.00 in0.0 mm 0.00 in0.0 mm 0.00 in0.0 mm
10:15 AM 37.9°F3.3°C 28.7°F-1.8°C 69% Calm Calm 0.7 mph1.1 kmh 29.62 in1003.0 mb 0.00 in0.0 mm 0.00 in0.0 mm 0.00 in0.0 mm
10:00 AM 37.2°F2.9°C 30.4°F-0.9°C 76% Calm Calm 0.7 mph1.1 kmh 29.62 in1003.0 mb 0.00 in0.0 mm 0.00 in0.0 mm 0.00 in0.0 mm
09:45 AM 32.7°F0.4°C 25.0°F-3.9°C 73% Calm Calm -- 29.61 in1002.7 mb 0.00 in0.0 mm 0.00 in0.0 mm 0.00 in0.0 mm
09:30 AM 31.6°F-0.2°C 24.3°F-4.3°C 74% 0.6 mph N1.0 kmh N 2.2 mph3.5 kmh 29.61 in1002.7 mb 0.00 in0.0 mm 0.00 in0.0 mm 0.00 in0.0 mm
09:15 AM 30.9°F-0.6°C 24.0°F-4.4°C 75% 1.1 mph N1.8 kmh N 3.1 mph5.0 kmh 29.61 in1002.7 mb 0.00 in0.0 mm 0.00 in0.0 mm 0.00 in0.0 mm
09:00 AM 30.4°F-0.9°C 24.1°F-4.4°C 77% Calm Calm 1.6 mph2.6 kmh 29.61 in1002.7 mb 0.00 in0.0 mm 0.00 in0.0 mm 0.00 in0.0 mm
08:45 AM 28.8°F-1.8°C 23.4°F-4.8°C 80% 0.4 mph NW0.6 kmh NW 2.2 mph3.5 kmh 29.61 in1002.7 mb 0.00 in0.0 mm 0.00 in0.0 mm 0.00 in0.0 mm
08:30 AM 28.0°F-2.2°C 23.3°F-4.8°C 82% 0.4 mph N0.6 kmh N 2.2 mph3.5 kmh 29.61 in1002.7 mb 0.00 in0.0 mm 0.00 in0.0 mm 0.00 in0.0 mm
08:15 AM 27.3°F-2.6°C 22.6°F-5.2°C 82% 0.3 mph N0.5 kmh N 1.6 mph2.6 kmh 29.61 in1002.7 mb 0.00 in0.0 mm 0.00 in0.0 mm 0.00 in0.0 mm
08:00 AM 26.8°F-2.9°C 22.1°F-5.5°C 82% 0.2 mph N0.3 kmh N 1.6 mph2.6 kmh 29.61 in1002.7 mb 0.00 in0.0 mm 0.00 in0.0 mm 0.00 in0.0 mm
07:45 AM 26.8°F-2.9°C 22.1°F-5.5°C 82% 1.0 mph N1.6 kmh N 2.2 mph3.5 kmh 29.61 in1002.7 mb 0.00 in0.0 mm 0.00 in0.0 mm 0.00 in0.0 mm
07:30 AM 26.6°F-3.0°C 21.6°F-5.8°C 81% 0.5 mph N0.8 kmh N 2.2 mph3.5 kmh 29.61 in1002.7 mb 0.00 in0.0 mm 0.00 in0.0 mm 0.00 in0.0 mm
07:15 AM 27.0°F-2.8°C 21.9°F-5.6°C 81% 0.4 mph NE0.6 kmh NE 2.2 mph3.5 kmh 29.61 in1002.7 mb 0.00 in0.0 mm 0.00 in0.0 mm 0.00 in0.0 mm
07:00 AM 27.0°F-2.8°C 21.9°F-5.6°C 81% 0.4 mph N0.6 kmh N 2.2 mph3.5 kmh 29.60 in1002.4 mb 0.00 in0.0 mm 0.00 in0.0 mm 0.00 in0.0 mm
06:45 AM 26.8°F-2.9°C 21.5°F-5.8°C 80% 0.2 mph NNE0.3 kmh NNE 1.6 mph2.6 kmh 29.61 in1002.7 mb 0.00 in0.0 mm 0.00 in0.0 mm 0.00 in0.0 mm
06:30 AM 27.3°F-2.6°C 22.3°F-5.4°C 81% 0.9 mph N1.4 kmh N 3.1 mph5.0 kmh 29.60 in1002.4 mb 0.00 in0.0 mm 0.00 in0.0 mm 0.00 in0.0 mm
06:15 AM 26.6°F-3.0°C 21.6°F-5.8°C 81% 0.2 mph NW0.3 kmh NW 1.6 mph2.6 kmh 29.60 in1002.4 mb 0.00 in0.0 mm 0.00 in0.0 mm 0.00 in0.0 mm
06:00 AM 26.8°F-2.9°C 21.8°F-5.7°C 81% 0.4 mph N0.6 kmh N 2.2 mph3.5 kmh 29.60 in1002.4 mb 0.00 in0.0 mm 0.00 in0.0 mm 0.00 in0.0 mm
05:45 AM 27.0°F-2.8°C 22.2°F-5.4°C 82% Calm Calm -- 29.60 in1002.4 mb 0.00 in0.0 mm 0.00 in0.0 mm 0.00 in0.0 mm
05:30 AM 27.7°F-2.4°C 23.2°F-4.9°C 83% 1.6 mph N2.6 kmh N 3.1 mph5.0 kmh 29.60 in1002.4 mb 0.00 in0.0 mm 0.00 in0.0 mm 0.00 in0.0 mm
05:15 AM 27.3°F-2.6°C 22.9°F-5.1°C 83% 0.9 mph NNE1.4 kmh NNE 3.1 mph5.0 kmh 29.60 in1002.4 mb 0.00 in0.0 mm 0.00 in0.0 mm 0.00 in0.0 mm
05:00 AM 27.0°F-2.8°C 22.2°F-5.4°C 82% 0.6 mph NW1.0 kmh NW 2.2 mph3.5 kmh 29.60 in1002.4 mb 0.00 in0.0 mm 0.00 in0.0 mm 0.00 in0.0 mm